createdAt,value
2023-03-10T00:00:39.504Z,96558.34
2023-03-10T00:03:06.237Z,96556.34
2023-03-10T00:05:33.265Z,96543.16
2023-03-10T00:07:59.836Z,96534.88
2023-03-10T00:10:26.483Z,96534.53
2023-03-10T00:12:53.244Z,96521.03
2023-03-10T00:15:20.007Z,96513.75
2023-03-10T00:17:50.100Z,96508.75
2023-03-10T00:20:16.949Z,96511.03
2023-03-10T00:22:43.777Z,96502.19
2023-03-10T00:25:11.278Z,96503.47
2023-03-10T00:27:37.941Z,96496.00
2023-03-10T00:30:05.637Z,96498.19
2023-03-10T00:32:34.090Z,96497.44
2023-03-10T00:35:00.764Z,96496.78
2023-03-10T00:37:27.311Z,96480.28
2023-03-10T00:39:54.166Z,96484.63
2023-03-10T00:42:23.793Z,96479.28
2023-03-10T00:44:50.407Z,96488.56
2023-03-10T00:47:17.117Z,96486.16
2023-03-10T00:49:43.753Z,96486.03
2023-03-10T00:52:10.389Z,96468.22
2023-03-10T00:54:41.159Z,96467.28
2023-03-10T00:57:09.000Z,96461.97
2023-03-10T00:59:49.404Z,96446.81
2023-03-10T01:02:16.525Z,96450.34
2023-03-10T01:04:43.322Z,96445.19
2023-03-10T01:07:10.044Z,96446.00
2023-03-10T01:09:36.922Z,96444.59
2023-03-10T01:12:03.801Z,96434.88
2023-03-10T01:14:32.002Z,96435.16
2023-03-10T01:16:59.544Z,96428.41
2023-03-10T01:19:26.286Z,96417.97
2023-03-10T01:21:52.987Z,96412.16
2023-03-10T01:24:19.846Z,96409.22
2023-03-10T01:26:46.619Z,96396.19
2023-03-10T01:29:13.295Z,96400.47
2023-03-10T01:31:42.148Z,96401.47
2023-03-10T01:34:09.138Z,96396.59
2023-03-10T01:36:36.315Z,96384.38
2023-03-10T01:39:03.010Z,96376.47
2023-03-10T01:41:29.852Z,96378.44
2023-03-10T01:43:58.572Z,96369.59
2023-03-10T01:46:45.809Z,96362.28
2023-03-10T01:49:33.222Z,96368.94
2023-03-10T01:52:12.943Z,96362.00
2023-03-10T01:55:11.969Z,96352.66
2023-03-10T01:57:46.148Z,96360.84
2023-03-10T02:00:13.344Z,96355.56
2023-03-10T02:02:54.929Z,96347.38
2023-03-10T02:05:22.914Z,96353.91
2023-03-10T02:07:50.574Z,96343.63
2023-03-10T02:10:17.675Z,96333.84
2023-03-10T02:12:44.308Z,96338.19
2023-03-10T02:15:12.163Z,96334.56
2023-03-10T02:17:40.268Z,96331.75
2023-03-10T02:20:34.520Z,96325.72
2023-03-10T02:23:01.421Z,96314.31
2023-03-10T02:25:46.841Z,96310.53
2023-03-10T02:28:13.900Z,96307.50
2023-03-10T02:30:45.242Z,96314.44
2023-03-10T02:33:32.700Z,96303.31
2023-03-10T02:36:22.729Z,96307.78
2023-03-10T02:38:49.748Z,96303.31
2023-03-10T02:41:23.622Z,96302.59
2023-03-10T02:43:50.984Z,96293.94
2023-03-10T02:46:18.415Z,96302.69
2023-03-10T02:48:45.133Z,96292.59
2023-03-10T02:51:17.477Z,96294.59
2023-03-10T02:53:44.240Z,96307.81
2023-03-10T02:56:11.143Z,96292.72
2023-03-10T02:58:37.864Z,96285.50
2023-03-10T03:01:05.431Z,96292.34
2023-03-10T03:03:32.236Z,96289.63
2023-03-10T03:05:58.988Z,96281.06
2023-03-10T03:08:26.001Z,96292.09
2023-03-10T03:10:52.907Z,96284.16
2023-03-10T03:13:19.921Z,96278.69
2023-03-10T03:15:47.142Z,96277.13
2023-03-10T03:18:13.942Z,96279.16
2023-03-10T03:20:41.156Z,96278.75
2023-03-10T03:23:07.959Z,96277.13
2023-03-10T03:25:37.829Z,96271.66
2023-03-10T03:28:05.776Z,96281.41
2023-03-10T03:30:33.528Z,96282.41
2023-03-10T03:33:02.374Z,96275.69
2023-03-10T03:35:32.153Z,96281.88
2023-03-10T03:37:59.537Z,96271.84
2023-03-10T03:40:28.199Z,96272.22
2023-03-10T03:42:55.228Z,96265.69
2023-03-10T03:45:24.531Z,96277.41
2023-03-10T03:47:51.468Z,96275.34
2023-03-10T03:50:19.945Z,96263.31
2023-03-10T03:52:47.015Z,96260.47
2023-03-10T03:55:15.933Z,96280.53
2023-03-10T03:57:42.984Z,96280.41
2023-03-10T04:00:14.382Z,96271.56
2023-03-10T04:02:41.188Z,96261.16
2023-03-10T04:05:08.824Z,96253.81
2023-03-10T04:07:35.530Z,96247.25
2023-03-10T04:10:02.325Z,96237.13
2023-03-10T04:12:29.690Z,96240.22
2023-03-10T04:14:56.359Z,96247.06
2023-03-10T04:17:23.016Z,96241.16
2023-03-10T04:20:04.593Z,96250.69
2023-03-10T04:22:33.290Z,96241.16
2023-03-10T04:24:59.930Z,96241.50
2023-03-10T04:27:26.590Z,96245.63
2023-03-10T04:29:53.394Z,96231.88
2023-03-10T04:32:20.162Z,96243.25
2023-03-10T04:34:46.785Z,96243.25
2023-03-10T04:37:13.642Z,96243.25
2023-03-10T04:39:40.262Z,96248.25
2023-03-10T04:42:07.370Z,96249.25
2023-03-10T04:44:34.419Z,96256.44
2023-03-10T04:47:01.244Z,96249.53
2023-03-10T04:49:28.204Z,96250.34
2023-03-10T04:51:55.121Z,96250.78
2023-03-10T04:54:21.832Z,96252.81
2023-03-10T04:56:48.636Z,96252.91
2023-03-10T04:59:15.281Z,96258.34
2023-03-10T05:01:42.012Z,96252.00
2023-03-10T05:04:09.992Z,96248.97
2023-03-10T05:06:36.660Z,96262.09
2023-03-10T05:09:04.915Z,96255.97
2023-03-10T05:11:32.076Z,96252.00
2023-03-10T05:13:58.736Z,96247.72
2023-03-10T05:16:25.493Z,96245.53
2023-03-10T05:18:52.996Z,96247.19
2023-03-10T05:21:21.678Z,96252.81
2023-03-10T05:23:49.221Z,96243.72
2023-03-10T05:26:16.656Z,96247.28
2023-03-10T05:28:43.473Z,96249.28
2023-03-10T05:31:16.474Z,96263.13
2023-03-10T05:33:44.122Z,96252.81
2023-03-10T05:36:13.258Z,96250.56
2023-03-10T05:38:40.063Z,96261.13
2023-03-10T05:41:10.835Z,96266.41
2023-03-10T05:43:39.846Z,96263.47
2023-03-10T05:46:07.042Z,96268.41
2023-03-10T05:48:33.727Z,96278.50
2023-03-10T05:51:03.107Z,96269.22
2023-03-10T05:53:30.635Z,96261.91
2023-03-10T05:55:58.464Z,96270.03
2023-03-10T05:58:26.554Z,96265.13
2023-03-10T06:00:53.622Z,96260.84
2023-03-10T06:03:20.736Z,96267.50
2023-03-10T06:05:47.385Z,96258.47
2023-03-10T06:08:14.114Z,96261.56
2023-03-10T06:10:40.857Z,96265.13
2023-03-10T06:13:07.643Z,96268.75
2023-03-10T06:15:34.326Z,96271.03
2023-03-10T06:18:00.955Z,96268.22
2023-03-10T06:20:27.599Z,96267.41
2023-03-10T06:22:54.276Z,96275.34
2023-03-10T06:25:21.475Z,96273.13
2023-03-10T06:27:48.344Z,96270.88
2023-03-10T06:30:16.101Z,96279.63
2023-03-10T06:32:43.190Z,96280.63
2023-03-10T06:35:13.318Z,96270.41
2023-03-10T06:37:40.027Z,96277.31
2023-03-10T06:40:08.956Z,96275.34
2023-03-10T06:42:35.639Z,96277.97
2023-03-10T06:45:02.413Z,96281.69
2023-03-10T06:47:29.027Z,96282.88
2023-03-10T06:49:55.700Z,96275.88
2023-03-10T06:52:22.519Z,96282.16
2023-03-10T06:54:49.201Z,96290.34
2023-03-10T06:57:15.885Z,96285.25
2023-03-10T06:59:42.578Z,96274.22
2023-03-10T07:02:12.645Z,96278.50
2023-03-10T07:04:40.316Z,96277.59
2023-03-10T07:07:07.194Z,96285.97
2023-03-10T07:09:33.899Z,96278.84
2023-03-10T07:12:00.534Z,96286.22
2023-03-10T07:14:27.391Z,96280.50
2023-03-10T07:16:54.091Z,96281.06
2023-03-10T07:19:21.023Z,96278.69
2023-03-10T07:21:47.631Z,96282.97
2023-03-10T07:24:14.391Z,96287.03
2023-03-10T07:26:41.403Z,96289.16
2023-03-10T07:29:08.098Z,96294.06
2023-03-10T07:31:34.894Z,96298.00
2023-03-10T07:34:02.146Z,96303.16
2023-03-10T07:36:29.372Z,96287.28
2023-03-10T07:38:56.432Z,96280.00
2023-03-10T07:41:23.177Z,96277.25
2023-03-10T07:43:54.483Z,96275.75
2023-03-10T07:46:22.260Z,96281.94
2023-03-10T07:48:49.333Z,96282.50
2023-03-10T07:51:16.483Z,96284.97
2023-03-10T07:53:43.098Z,96284.97
2023-03-10T07:56:11.689Z,96282.44
2023-03-10T07:58:39.557Z,96280.97
2023-03-10T08:01:08.376Z,96297.13
2023-03-10T08:03:35.847Z,96285.34
2023-03-10T08:06:05.641Z,96286.56
2023-03-10T08:08:32.693Z,96273.25
2023-03-10T08:11:10.619Z,96273.00
2023-03-10T08:13:38.254Z,96265.31
2023-03-10T08:16:05.869Z,96275.13
2023-03-10T08:18:33.135Z,96263.22
2023-03-10T08:21:04.208Z,96281.13
2023-03-10T08:23:31.154Z,96272.13
2023-03-10T08:26:01.130Z,96266.69
2023-03-10T08:28:30.160Z,96271.59
2023-03-10T08:31:05.078Z,96269.84
2023-03-10T08:33:32.757Z,96263.84
2023-03-10T08:36:08.712Z,96262.25
2023-03-10T08:38:36.500Z,96262.09
2023-03-10T08:41:23.042Z,96260.75
2023-03-10T08:43:50.685Z,96256.50
2023-03-10T08:46:18.945Z,96261.16
2023-03-10T08:48:46.671Z,96265.19
2023-03-10T08:51:15.769Z,96254.19
2023-03-10T08:53:44.471Z,96261.72
2023-03-10T08:56:11.220Z,96246.78
2023-03-10T08:58:37.941Z,96254.28
2023-03-10T09:01:05.352Z,96264.94
2023-03-10T09:03:35.748Z,96252.03
2023-03-10T09:06:03.750Z,96255.50
2023-03-10T09:08:30.433Z,96266.09
2023-03-10T09:10:57.215Z,96264.06
2023-03-10T09:13:24.351Z,96268.59
2023-03-10T09:15:52.928Z,96262.47
2023-03-10T09:18:20.653Z,96259.91
2023-03-10T09:20:47.481Z,96256.28
2023-03-10T09:23:15.370Z,96255.88
2023-03-10T09:25:42.512Z,96254.22
2023-03-10T09:28:11.627Z,96257.78
2023-03-10T09:30:40.969Z,96267.84
2023-03-10T09:33:13.666Z,96269.47
2023-03-10T09:35:41.694Z,96265.50
2023-03-10T09:38:13.044Z,96267.09
2023-03-10T09:40:44.695Z,96273.28
2023-03-10T09:43:19.619Z,96263.13
2023-03-10T09:46:06.205Z,96257.47
2023-03-10T09:49:04.585Z,96260.13
2023-03-10T09:51:31.659Z,96248.09
2023-03-10T09:54:25.751Z,96255.47
2023-03-10T09:56:55.581Z,96251.81
2023-03-10T09:59:35.568Z,96254.22
2023-03-10T10:02:15.802Z,96265.22
2023-03-10T10:04:43.374Z,96251.81
2023-03-10T10:07:20.089Z,96247.75
2023-03-10T10:09:50.509Z,96250.22
2023-03-10T10:12:23.505Z,96244.69
2023-03-10T10:15:18.337Z,96243.34
2023-03-10T10:17:55.064Z,96244.34
2023-03-10T10:20:39.662Z,96244.16
2023-03-10T10:23:18.835Z,96253.38
2023-03-10T10:25:45.452Z,96252.31
2023-03-10T10:28:49.180Z,96261.28
2023-03-10T10:31:20.773Z,96263.63
2023-03-10T10:34:02.442Z,96266.50
2023-03-10T10:36:37.968Z,96262.78
2023-03-10T10:39:26.209Z,96273.81
2023-03-10T10:41:54.664Z,96274.91
2023-03-10T10:44:21.523Z,96273.44
2023-03-10T10:46:56.353Z,96275.28
2023-03-10T10:49:29.073Z,96272.03
2023-03-10T10:51:58.910Z,96270.44
2023-03-10T10:54:44.629Z,96273.94
2023-03-10T10:57:23.132Z,96267.81
2023-03-10T10:59:49.767Z,96269.84
2023-03-10T11:02:32.483Z,96255.59
2023-03-10T11:05:20.414Z,96257.31
2023-03-10T11:07:47.530Z,96257.72
2023-03-10T11:10:15.894Z,96258.53
2023-03-10T11:12:48.802Z,96274.41
2023-03-10T11:15:52.241Z,96284.72
2023-03-10T11:18:26.426Z,96273.53
2023-03-10T11:21:08.336Z,96285.53
2023-03-10T11:24:02.848Z,96280.47
2023-03-10T11:26:52.106Z,96265.09
2023-03-10T11:29:24.094Z,96266.66
2023-03-10T11:32:00.040Z,96261.91
2023-03-10T11:34:35.244Z,96259.78
2023-03-10T11:37:15.377Z,96259.31
2023-03-10T11:39:49.566Z,96253.34
2023-03-10T11:42:27.906Z,96261.94
2023-03-10T11:45:16.035Z,96249.88
2023-03-10T11:47:58.149Z,96260.91
2023-03-10T11:50:33.802Z,96268.03
2023-03-10T11:53:15.804Z,96268.38
2023-03-10T11:55:44.273Z,96254.44
2023-03-10T11:58:29.084Z,96252.25
2023-03-10T12:00:56.084Z,96258.84
2023-03-10T12:03:34.776Z,96267.44
2023-03-10T12:06:03.144Z,96255.94
2023-03-10T12:08:34.045Z,96251.09
2023-03-10T12:11:03.149Z,96248.41
2023-03-10T12:13:46.397Z,96245.47
2023-03-10T12:16:24.414Z,96248.19
2023-03-10T12:18:51.628Z,96240.88
2023-03-10T12:21:26.140Z,96242.56
2023-03-10T12:23:55.212Z,96235.63
2023-03-10T12:26:40.006Z,96237.09
2023-03-10T12:29:22.026Z,96222.06
2023-03-10T12:31:51.632Z,96216.72
2023-03-10T12:34:22.449Z,96207.13
2023-03-10T12:37:05.083Z,96206.38
2023-03-10T12:39:39.502Z,96202.34
2023-03-10T12:42:26.246Z,96201.81
2023-03-10T12:44:56.174Z,96190.25
2023-03-10T12:47:25.477Z,96193.19
2023-03-10T12:49:55.592Z,96194.13
2023-03-10T12:52:36.045Z,96190.78
2023-03-10T12:55:19.520Z,96174.78
2023-03-10T12:58:09.040Z,96183.22
2023-03-10T13:00:46.139Z,96187.66
2023-03-10T13:03:41.896Z,96180.19
2023-03-10T13:06:13.199Z,96187.56
2023-03-10T13:08:39.755Z,96187.31
2023-03-10T13:11:18.670Z,96219.69
2023-03-10T13:13:50.087Z,96209.31
2023-03-10T13:16:19.227Z,96194.78
2023-03-10T13:18:51.320Z,96189.44
2023-03-10T13:21:38.061Z,96198.47
2023-03-10T13:24:26.123Z,96195.34
2023-03-10T13:27:30.702Z,96191.03
2023-03-10T13:30:22.178Z,96190.81
2023-03-10T13:32:59.724Z,96186.22
2023-03-10T13:35:37.379Z,96181.91
2023-03-10T13:38:11.317Z,96190.09
2023-03-10T13:40:42.071Z,96186.06
2023-03-10T13:43:33.950Z,96182.59
2023-03-10T13:46:03.113Z,96180.50
2023-03-10T13:48:32.234Z,96181.06
2023-03-10T13:51:08.152Z,96184.16
2023-03-10T13:53:35.035Z,96192.03
2023-03-10T13:56:15.523Z,96197.28
2023-03-10T13:58:43.777Z,96206.69
2023-03-10T14:01:18.568Z,96210.00
2023-03-10T14:04:00.577Z,96200.16
2023-03-10T14:06:29.634Z,96201.72
2023-03-10T14:08:56.503Z,96205.88
2023-03-10T14:11:39.826Z,96194.81
2023-03-10T14:14:08.602Z,96202.66
2023-03-10T14:16:49.563Z,96185.19
2023-03-10T14:19:44.026Z,96188.53
2023-03-10T14:22:43.721Z,96184.66
2023-03-10T14:25:14.065Z,96180.34
2023-03-10T14:27:43.151Z,96170.66
2023-03-10T14:30:31.117Z,96164.97
2023-03-10T14:32:59.384Z,96162.69
2023-03-10T14:35:28.343Z,96170.69
2023-03-10T14:37:55.231Z,96167.00
2023-03-10T14:40:23.829Z,96160.28
2023-03-10T14:42:52.297Z,96162.69
2023-03-10T14:45:25.543Z,96167.16
2023-03-10T14:47:52.736Z,96161.25
2023-03-10T14:50:21.472Z,96162.69
2023-03-10T14:52:48.164Z,96164.78
2023-03-10T14:55:15.162Z,96154.97
2023-03-10T14:57:45.072Z,96167.44
2023-03-10T15:00:18.677Z,96168.84
2023-03-10T15:02:47.928Z,96165.56
2023-03-10T15:05:16.327Z,96181.25
2023-03-10T15:07:43.398Z,96175.72
2023-03-10T15:10:13.978Z,96176.31
2023-03-10T15:12:41.499Z,96170.16
2023-03-10T15:15:16.287Z,96164.44
2023-03-10T15:17:42.972Z,96174.59
2023-03-10T15:20:16.687Z,96164.38
2023-03-10T15:22:47.317Z,96162.50
2023-03-10T15:25:16.134Z,96160.03
2023-03-10T15:27:44.076Z,96166.56
2023-03-10T15:30:23.853Z,96163.88
2023-03-10T15:32:50.794Z,96174.75
2023-03-10T15:35:18.302Z,96179.25
2023-03-10T15:37:45.603Z,96195.50
2023-03-10T15:40:16.711Z,96181.16
2023-03-10T15:42:44.681Z,96174.16
2023-03-10T15:45:15.029Z,96174.56
2023-03-10T15:47:42.065Z,96185.31
2023-03-10T15:50:09.718Z,96178.28
2023-03-10T15:52:36.765Z,96172.53
2023-03-10T15:55:04.047Z,96176.16
2023-03-10T15:57:30.841Z,96174.94
2023-03-10T15:59:57.470Z,96169.28
2023-03-10T16:02:24.091Z,96171.13
2023-03-10T16:04:50.952Z,96187.38
2023-03-10T16:07:17.830Z,96179.56
2023-03-10T16:09:44.451Z,96177.34
2023-03-10T16:12:11.054Z,96182.81
2023-03-10T16:14:38.446Z,96187.19
2023-03-10T16:17:05.455Z,96183.44
2023-03-10T16:19:32.150Z,96175.63
2023-03-10T16:21:58.829Z,96177.47
2023-03-10T16:24:25.595Z,96174.84
2023-03-10T16:26:52.239Z,96181.00
2023-03-10T16:29:19.906Z,96173.56
2023-03-10T16:31:46.799Z,96171.84
2023-03-10T16:34:13.421Z,96162.84
2023-03-10T16:36:40.157Z,96164.75
2023-03-10T16:39:10.924Z,96167.97
2023-03-10T16:41:37.664Z,96165.69
2023-03-10T16:44:06.059Z,96165.88
2023-03-10T16:46:33.735Z,96159.59
2023-03-10T16:49:01.686Z,96166.41
2023-03-10T16:51:40.179Z,96177.72
2023-03-10T16:54:10.781Z,96170.16
2023-03-10T16:56:42.940Z,96165.59
2023-03-10T16:59:15.302Z,96174.25
2023-03-10T17:01:45.191Z,96179.19
2023-03-10T17:04:12.083Z,96163.94
2023-03-10T17:06:39.305Z,96162.69
2023-03-10T17:09:07.913Z,96160.97
2023-03-10T17:11:40.239Z,96159.97
2023-03-10T17:14:10.374Z,96144.84
2023-03-10T17:16:38.104Z,96146.03
2023-03-10T17:19:07.742Z,96144.84
2023-03-10T17:21:36.184Z,96149.59
2023-03-10T17:24:04.087Z,96150.03
2023-03-10T17:26:30.941Z,96148.41
2023-03-10T17:28:58.318Z,96162.38
2023-03-10T17:31:27.671Z,96165.50
2023-03-10T17:33:55.629Z,96161.84
2023-03-10T17:36:22.540Z,96162.66
2023-03-10T17:38:53.036Z,96161.19
2023-03-10T17:41:20.385Z,96170.03
2023-03-10T17:43:47.380Z,96182.94
2023-03-10T17:46:17.044Z,96184.03
2023-03-10T17:48:44.502Z,96191.63
2023-03-10T17:51:16.361Z,96190.00
2023-03-10T17:53:43.789Z,96209.19
2023-03-10T17:56:10.868Z,96203.16
2023-03-10T17:58:37.650Z,96205.00
2023-03-10T18:01:15.724Z,96209.34
2023-03-10T18:03:42.753Z,96206.84
2023-03-10T18:06:16.642Z,96224.31
2023-03-10T18:08:43.843Z,96210.72
2023-03-10T18:11:11.086Z,96223.94
2023-03-10T18:13:38.213Z,96215.28
2023-03-10T18:16:05.787Z,96217.25
2023-03-10T18:18:33.059Z,96221.88
2023-03-10T18:20:59.836Z,96213.00
2023-03-10T18:23:26.656Z,96221.44
2023-03-10T18:25:53.432Z,96225.94
2023-03-10T18:28:20.936Z,96218.50
2023-03-10T18:30:49.979Z,96212.94
2023-03-10T18:33:16.717Z,96233.19
2023-03-10T18:35:45.645Z,96211.31
2023-03-10T18:38:14.154Z,96222.19
2023-03-10T18:40:41.646Z,96227.91
2023-03-10T18:43:09.226Z,96214.13
2023-03-10T18:45:35.984Z,96217.09
2023-03-10T18:48:02.679Z,96211.53
2023-03-10T18:50:29.425Z,96226.34
2023-03-10T18:52:56.118Z,96224.69
2023-03-10T18:55:22.795Z,96222.41
2023-03-10T18:57:49.434Z,96219.44
2023-03-10T19:00:16.871Z,96230.59
2023-03-10T19:02:43.611Z,96229.81
2023-03-10T19:05:15.455Z,96230.13
2023-03-10T19:07:42.444Z,96240.03
2023-03-10T19:10:13.260Z,96247.09
2023-03-10T19:12:40.431Z,96238.84
2023-03-10T19:15:09.260Z,96241.16
2023-03-10T19:17:37.645Z,96250.88
2023-03-10T19:20:07.993Z,96245.13
2023-03-10T19:22:35.941Z,96254.66
2023-03-10T19:25:04.775Z,96246.75
2023-03-10T19:27:31.960Z,96252.22
2023-03-10T19:29:58.964Z,96265.50
2023-03-10T19:32:27.430Z,96257.94
2023-03-10T19:34:54.148Z,96265.50
2023-03-10T19:37:22.224Z,96277.00
2023-03-10T19:39:49.069Z,96280.28
2023-03-10T19:42:15.827Z,96274.19
2023-03-10T19:44:42.646Z,96273.38
2023-03-10T19:47:09.416Z,96279.09
2023-03-10T19:49:36.129Z,96288.31
2023-03-10T19:52:02.969Z,96285.19
2023-03-10T19:54:29.637Z,96280.56
2023-03-10T19:56:56.296Z,96298.63
2023-03-10T19:59:23.027Z,96293.38
2023-03-10T20:01:51.670Z,96291.09
2023-03-10T20:04:19.079Z,96293.19
2023-03-10T20:06:46.041Z,96309.44
2023-03-10T20:09:12.812Z,96323.22
2023-03-10T20:11:40.715Z,96327.78
2023-03-10T20:14:08.430Z,96335.81
2023-03-10T20:16:35.560Z,96350.00
2023-03-10T20:19:02.620Z,96360.16
2023-03-10T20:21:29.666Z,96380.63
2023-03-10T20:23:56.516Z,96406.13
2023-03-10T20:26:23.691Z,96418.22
2023-03-10T20:28:50.516Z,96422.09
2023-03-10T20:31:22.827Z,96444.47
2023-03-10T20:33:50.229Z,96447.34
2023-03-10T20:36:16.942Z,96484.47
2023-03-10T20:38:45.135Z,96503.16
2023-03-10T20:41:15.296Z,96532.09
2023-03-10T20:43:43.366Z,96555.69
2023-03-10T20:46:10.753Z,96558.06
2023-03-10T20:48:37.775Z,96580.91
2023-03-10T20:51:05.207Z,96599.50
2023-03-10T20:53:33.575Z,96623.13
2023-03-10T20:56:00.786Z,96647.34
2023-03-10T20:58:28.142Z,96632.28
2023-03-10T21:00:55.120Z,96646.59
2023-03-10T21:03:22.103Z,96657.28
2023-03-10T21:05:48.766Z,96668.25
2023-03-10T21:08:15.653Z,96662.47
2023-03-10T21:10:44.578Z,96677.25
2023-03-10T21:13:11.547Z,96686.50
2023-03-10T21:15:39.557Z,96683.13
2023-03-10T21:18:06.738Z,96689.31
2023-03-10T21:20:33.820Z,96739.97
2023-03-10T21:23:00.660Z,96721.84
2023-03-10T21:25:28.326Z,96738.00
2023-03-10T21:27:58.825Z,96726.41
2023-03-10T21:30:31.923Z,96743.47
2023-03-10T21:32:59.311Z,96753.34
2023-03-10T21:35:28.233Z,96761.41
2023-03-10T21:37:55.596Z,96762.00
2023-03-10T21:40:24.352Z,96765.34
2023-03-10T21:42:51.129Z,96791.09
2023-03-10T21:45:21.093Z,96794.75
2023-03-10T21:47:47.956Z,96811.13
2023-03-10T21:50:16.218Z,96817.91
2023-03-10T21:52:43.427Z,96823.47
2023-03-10T21:55:20.849Z,96821.56
2023-03-10T21:57:47.986Z,96842.69
2023-03-10T22:00:17.179Z,96863.06
2023-03-10T22:02:43.761Z,96861.56
2023-03-10T22:05:13.682Z,96865.00
2023-03-10T22:07:40.698Z,96876.94
2023-03-10T22:10:08.738Z,96888.69
2023-03-10T22:12:35.376Z,96899.25
2023-03-10T22:15:02.146Z,96897.00
2023-03-10T22:17:28.871Z,96911.81
2023-03-10T22:19:55.618Z,96915.47
2023-03-10T22:22:23.143Z,96928.16
2023-03-10T22:24:50.300Z,96928.41
2023-03-10T22:27:17.602Z,96944.16
2023-03-10T22:29:44.342Z,96942.16
2023-03-10T22:32:11.103Z,96962.19
2023-03-10T22:34:37.911Z,96970.50
2023-03-10T22:37:04.848Z,96973.19
2023-03-10T22:39:31.477Z,96988.84
2023-03-10T22:41:58.137Z,96993.47
2023-03-10T22:44:24.763Z,97002.72
2023-03-10T22:46:51.486Z,97016.47
2023-03-10T22:49:18.789Z,97031.28
2023-03-10T22:51:45.482Z,97021.69
2023-03-10T22:54:12.100Z,97032.41
2023-03-10T22:56:38.685Z,97050.81
2023-03-10T22:59:06.048Z,97064.06
2023-03-10T23:01:32.909Z,97073.25
2023-03-10T23:03:59.634Z,97079.75
2023-03-10T23:06:29.176Z,97106.53
2023-03-10T23:08:58.617Z,97103.56
2023-03-10T23:11:25.533Z,97106.25
2023-03-10T23:13:52.262Z,97111.09
2023-03-10T23:16:19.857Z,97120.13
2023-03-10T23:18:47.284Z,97130.72
2023-03-10T23:21:14.407Z,97145.53
2023-03-10T23:23:43.808Z,97168.88
2023-03-10T23:26:11.490Z,97169.09
2023-03-10T23:28:38.324Z,97181.16
2023-03-10T23:31:05.506Z,97188.03
2023-03-10T23:33:32.328Z,97189.09
2023-03-10T23:35:59.156Z,97200.22
2023-03-10T23:38:26.979Z,97199.28
2023-03-10T23:40:55.492Z,97213.16
2023-03-10T23:43:22.468Z,97224.50
2023-03-10T23:45:49.365Z,97227.00
2023-03-10T23:48:17.858Z,97226.78
2023-03-10T23:50:46.890Z,97241.47
2023-03-10T23:53:16.257Z,97254.06
2023-03-10T23:55:44.214Z,97252.41
2023-03-10T23:58:11.609Z,97261.19
